Terminal Aerodrome Forecast
Issued by NWS Central Illinois

Home | Current Version | Previous Version | Text Only | Print | Product List | Glossary On
Versions: 1 2 3 4 5 6 7 8 9 10 11 12 13 14 15 16 17 18 19 20 21 22 23 24 25 26 27 28 29 30 31 32 33 34 35 36 37 38 39 40 41 42 43 44
000
FTUS43 KILX 190411 AAB
TAFPIA
TAF AMD
KPIA 190411Z 1904/1924 01007KT P6SM OVC040
     FM190800 01012KT P6SM OVC025
     FM191100 36012G26KT P6SM OVC018
     FM191600 01013G27KT P6SM BKN040
     FM191900 01016G29KT P6SM SCT080=

USA.gov is the U.S. government's official web portal to all federal, state and local government web resources and services.